createdAt,value
2022-10-24T00:00:35.231Z,0.90
2022-10-24T00:03:05.069Z,1.10
2022-10-24T00:05:33.424Z,0.80
2022-10-24T00:08:10.409Z,1.17
2022-10-24T00:10:51.726Z,0.73
2022-10-24T00:13:38.390Z,1.10
2022-10-24T00:16:11.706Z,1.10
2022-10-24T00:18:46.268Z,0.77
2022-10-24T00:21:28.466Z,1.60
2022-10-24T00:23:56.713Z,1.20
2022-10-24T00:26:24.871Z,1.10
2022-10-24T00:28:53.105Z,1.30
2022-10-24T00:31:21.378Z,1.10
2022-10-24T00:33:50.981Z,1.00
2022-10-24T00:36:21.855Z,0.70
2022-10-24T00:38:50.644Z,1.10
2022-10-24T00:41:21.109Z,1.10
2022-10-24T00:43:49.604Z,1.00
2022-10-24T00:46:19.152Z,1.10
2022-10-24T00:48:51.327Z,1.57
2022-10-24T00:51:24.729Z,1.10
2022-10-24T00:53:59.075Z,1.03
2022-10-24T00:56:31.887Z,1.20
2022-10-24T00:59:02.552Z,1.20
2022-10-24T01:01:30.899Z,2.10
2022-10-24T01:04:02.616Z,0.90
2022-10-24T01:06:46.442Z,1.07
2022-10-24T01:09:33.069Z,1.20
2022-10-24T01:12:20.033Z,0.80
2022-10-24T01:14:57.001Z,0.83
2022-10-24T01:17:32.720Z,0.60
2022-10-24T01:20:45.032Z,0.87
2022-10-24T01:23:31.882Z,0.97
2022-10-24T01:26:12.987Z,0.50
2022-10-24T01:28:51.069Z,0.73
2022-10-24T01:31:26.780Z,0.70
2022-10-24T01:34:07.271Z,0.93
2022-10-24T01:36:43.073Z,2.30
2022-10-24T01:39:15.897Z,0.80
2022-10-24T01:41:46.022Z,0.50
2022-10-24T01:44:18.592Z,0.90
2022-10-24T01:46:53.000Z,0.70
2022-10-24T01:49:23.531Z,0.90
2022-10-24T01:51:57.173Z,0.80
2022-10-24T01:54:25.574Z,1.10
2022-10-24T01:56:53.698Z,0.80
2022-10-24T01:59:41.994Z,0.80
2022-10-24T02:02:14.373Z,0.80
2022-10-24T02:04:51.865Z,1.33
2022-10-24T02:07:22.599Z,0.50
2022-10-24T02:09:54.769Z,0.53
2022-10-24T02:12:26.523Z,0.70
2022-10-24T02:14:59.018Z,0.70
2022-10-24T02:20:07.285Z,0.63
2022-10-24T02:22:43.448Z,0.77
2022-10-24T02:25:16.239Z,1.30
2022-10-24T02:27:53.594Z,1.20
2022-10-24T02:30:26.483Z,1.53
2022-10-24T02:32:58.916Z,1.70
2022-10-24T02:35:30.842Z,1.90
2022-10-24T02:38:04.161Z,1.20
2022-10-24T02:40:33.165Z,1.60
2022-10-24T02:43:02.585Z,1.70
2022-10-24T02:45:31.689Z,1.37
2022-10-24T02:48:05.487Z,1.47
2022-10-24T02:50:34.269Z,1.33
2022-10-24T02:53:02.844Z,0.90
2022-10-24T02:55:31.079Z,1.13
2022-10-24T02:57:59.298Z,1.60
2022-10-24T03:00:46.287Z,1.70
2022-10-24T03:03:18.353Z,1.30
2022-10-24T03:06:17.023Z,1.97
2022-10-24T03:09:15.007Z,1.33
2022-10-24T03:11:47.955Z,1.63
2022-10-24T03:21:39.618Z,1.60
2022-10-24T03:24:37.019Z,1.50
2022-10-24T03:27:18.245Z,1.50
2022-10-24T03:30:05.519Z,1.23
2022-10-24T03:32:36.959Z,1.07
2022-10-24T03:38:56.854Z,1.00
2022-10-24T03:41:54.999Z,1.03
2022-10-24T03:45:00.809Z,1.17
2022-10-24T03:47:53.122Z,1.13
2022-10-24T03:50:24.856Z,1.13
2022-10-24T03:53:40.861Z,1.60
2022-10-24T03:56:10.622Z,0.90
2022-10-24T03:58:46.161Z,1.80
2022-10-24T04:01:20.517Z,1.10
2022-10-24T04:04:18.742Z,0.90
2022-10-24T04:07:16.637Z,1.67
2022-10-24T04:09:59.070Z,1.07
2022-10-24T04:16:34.263Z,1.00
2022-10-24T04:19:59.683Z,1.30
2022-10-24T04:22:32.050Z,1.20
2022-10-24T04:25:15.027Z,0.97
2022-10-24T04:31:51.946Z,1.63
2022-10-24T04:34:39.478Z,1.50
2022-10-24T04:37:14.302Z,1.73
2022-10-24T04:40:43.349Z,1.90
2022-10-24T04:43:40.114Z,1.30
2022-10-24T04:46:14.792Z,1.20
2022-10-24T04:48:43.153Z,1.57
2022-10-24T04:51:11.573Z,0.93
2022-10-24T04:53:39.925Z,1.20
2022-10-24T04:56:08.644Z,1.00
2022-10-24T04:58:36.753Z,1.57
2022-10-24T05:01:12.212Z,1.70
2022-10-24T05:03:40.468Z,1.30
2022-10-24T05:06:08.690Z,1.40
2022-10-24T05:08:48.538Z,1.53
2022-10-24T05:11:18.726Z,1.37
2022-10-24T05:13:47.040Z,1.30
2022-10-24T05:16:18.913Z,2.93
2022-10-24T05:18:49.245Z,1.33
2022-10-24T05:21:21.520Z,1.50
2022-10-24T05:23:49.816Z,2.00
2022-10-24T05:26:21.747Z,1.50
2022-10-24T05:28:52.462Z,1.30
2022-10-24T05:31:23.826Z,2.00
2022-10-24T05:33:52.753Z,1.77
2022-10-24T05:36:21.132Z,1.83
2022-10-24T05:38:49.455Z,1.50
2022-10-24T05:41:20.952Z,1.20
2022-10-24T05:43:49.160Z,1.60
2022-10-24T05:46:17.427Z,1.30
2022-10-24T05:51:45.478Z,1.10
2022-10-24T05:54:14.733Z,1.97
2022-10-24T05:56:44.435Z,1.07
2022-10-24T05:59:18.605Z,1.77
2022-10-24T06:01:46.858Z,1.40
2022-10-24T06:04:27.395Z,1.10
2022-10-24T06:07:02.081Z,0.90
2022-10-24T06:09:39.929Z,1.10
2022-10-24T06:12:09.883Z,1.03
2022-10-24T06:14:40.570Z,1.50
2022-10-24T06:17:11.820Z,1.20
2022-10-24T06:19:53.000Z,0.90
2022-10-24T06:22:38.459Z,1.60
2022-10-24T06:25:08.094Z,0.83
2022-10-24T06:27:42.892Z,1.23
2022-10-24T06:30:13.645Z,1.10
2022-10-24T06:32:45.062Z,1.60
2022-10-24T06:35:20.287Z,0.80
2022-10-24T06:37:57.429Z,1.00
2022-10-24T06:40:25.731Z,0.73
2022-10-24T06:42:53.943Z,1.13
2022-10-24T06:45:28.480Z,0.83
2022-10-24T06:48:01.930Z,1.50
2022-10-24T06:50:39.768Z,1.73
2022-10-24T06:53:28.385Z,1.10
2022-10-24T06:56:02.667Z,1.03
2022-10-24T06:58:35.755Z,1.07
2022-10-24T07:01:09.774Z,0.70
2022-10-24T07:03:38.397Z,0.87
2022-10-24T07:06:37.688Z,0.97
2022-10-24T07:09:10.218Z,1.10
2022-10-24T07:11:42.735Z,1.33
2022-10-24T07:14:22.092Z,1.83
2022-10-24T07:17:02.814Z,2.43
2022-10-24T07:19:34.009Z,1.10
2022-10-24T07:22:10.609Z,1.50
2022-10-24T07:24:55.548Z,1.50
2022-10-24T07:27:38.923Z,0.93
2022-10-24T07:30:08.546Z,1.17
2022-10-24T07:32:41.388Z,0.70
2022-10-24T07:35:26.515Z,1.67
2022-10-24T07:38:00.988Z,1.17
2022-10-24T07:40:34.794Z,0.83
2022-10-24T07:43:32.254Z,1.00
2022-10-24T07:46:35.613Z,0.77
2022-10-24T07:49:10.237Z,2.60
2022-10-24T07:51:53.297Z,0.67
2022-10-24T07:54:36.408Z,1.10
2022-10-24T07:57:16.006Z,1.37
2022-10-24T07:59:46.313Z,1.10
2022-10-24T08:02:16.787Z,1.23
2022-10-24T08:04:47.781Z,1.47
2022-10-24T08:07:16.294Z,1.43
2022-10-24T08:09:54.653Z,0.90
2022-10-24T08:12:23.018Z,1.50
2022-10-24T08:14:52.238Z,1.23
2022-10-24T08:17:28.843Z,2.23
2022-10-24T08:20:00.152Z,1.00
2022-10-24T08:22:30.006Z,1.00
2022-10-24T08:25:17.411Z,1.33
2022-10-24T08:27:46.327Z,0.93
2022-10-24T08:30:20.354Z,1.23
2022-10-24T08:32:59.084Z,1.40
2022-10-24T08:35:41.932Z,1.40
2022-10-24T08:38:18.089Z,1.30
2022-10-24T08:40:51.102Z,1.00
2022-10-24T08:43:26.035Z,1.17
2022-10-24T08:46:06.155Z,1.10
2022-10-24T08:48:42.377Z,0.80
2022-10-24T08:51:28.027Z,1.77
2022-10-24T08:54:01.358Z,1.60
2022-10-24T08:56:45.088Z,1.53
2022-10-24T08:59:14.517Z,1.77
2022-10-24T09:01:47.084Z,1.27
2022-10-24T09:04:18.378Z,0.87
2022-10-24T09:06:48.038Z,1.20
2022-10-24T09:09:22.286Z,1.20
2022-10-24T09:11:54.880Z,4.00
2022-10-24T09:14:25.147Z,1.07
2022-10-24T09:16:57.689Z,1.23
2022-10-24T09:19:28.948Z,1.07
2022-10-24T09:21:59.035Z,1.00
2022-10-24T09:24:36.545Z,1.10
2022-10-24T09:27:12.047Z,1.30
2022-10-24T09:29:43.484Z,1.13
2022-10-24T09:32:18.443Z,1.20
2022-10-24T09:34:49.589Z,1.03
2022-10-24T09:37:35.112Z,0.70
2022-10-24T09:40:18.354Z,0.53
2022-10-24T09:43:00.555Z,1.13
2022-10-24T09:45:42.415Z,0.80
2022-10-24T09:48:26.063Z,0.60
2022-10-24T09:50:58.494Z,0.70
2022-10-24T09:53:29.718Z,0.50
2022-10-24T09:56:00.378Z,0.50
2022-10-24T09:58:33.764Z,0.73
2022-10-24T10:01:06.941Z,0.70
2022-10-24T10:03:43.006Z,0.47
2022-10-24T10:06:18.357Z,0.70
2022-10-24T10:08:52.078Z,0.60
2022-10-24T10:11:27.593Z,1.03
2022-10-24T10:13:59.909Z,0.60
2022-10-24T10:16:31.776Z,0.40
2022-10-24T10:19:05.469Z,0.67
2022-10-24T10:21:53.075Z,1.13
2022-10-24T10:24:27.220Z,0.60
2022-10-24T10:26:58.619Z,0.20
2022-10-24T10:29:28.153Z,0.50
2022-10-24T10:32:08.876Z,0.43
2022-10-24T10:34:41.492Z,0.70
2022-10-24T10:37:25.497Z,0.30
2022-10-24T10:40:19.517Z,0.27
2022-10-24T10:42:59.922Z,0.50
2022-10-24T10:45:38.586Z,1.70
2022-10-24T10:48:26.046Z,1.00
2022-10-24T10:51:02.270Z,0.50
2022-10-24T10:53:53.930Z,0.70
2022-10-24T10:56:33.040Z,0.50
2022-10-24T10:59:29.663Z,0.40
2022-10-24T11:02:15.425Z,0.60
2022-10-24T11:04:48.800Z,0.60
2022-10-24T11:07:29.940Z,0.67
2022-10-24T11:10:00.013Z,0.37
2022-10-24T11:12:35.455Z,0.60
2022-10-24T11:15:17.016Z,0.70
2022-10-24T11:18:04.997Z,0.50
2022-10-24T11:20:50.668Z,0.43
2022-10-24T11:23:30.759Z,0.60
2022-10-24T11:26:04.165Z,0.67
2022-10-24T11:28:39.656Z,0.30
2022-10-24T11:31:14.747Z,0.20
2022-10-24T11:34:02.237Z,0.30
2022-10-24T11:36:39.813Z,0.40
2022-10-24T11:39:22.108Z,0.20
2022-10-24T11:42:07.049Z,0.30
2022-10-24T11:44:49.427Z,0.30
2022-10-24T11:47:54.135Z,0.30
2022-10-24T11:50:37.527Z,0.30
2022-10-24T11:53:21.180Z,0.40
2022-10-24T11:55:59.965Z,0.40
2022-10-24T11:58:33.487Z,0.30
2022-10-24T12:01:20.166Z,0.30
2022-10-24T12:04:27.371Z,0.30
2022-10-24T12:07:29.429Z,0.30
2022-10-24T12:10:22.150Z,0.20
2022-10-24T12:13:15.918Z,0.57
2022-10-24T12:15:54.761Z,0.30
2022-10-24T12:18:30.017Z,0.20
2022-10-24T12:21:06.968Z,0.30
2022-10-24T12:23:40.111Z,0.30
2022-10-24T12:26:22.247Z,0.20
2022-10-24T12:28:56.810Z,0.47
2022-10-24T12:31:34.020Z,0.33
2022-10-24T12:34:49.347Z,0.20
2022-10-24T12:37:37.550Z,0.20
2022-10-24T12:40:51.640Z,0.57
2022-10-24T12:43:32.977Z,0.40
2022-10-24T12:46:09.472Z,0.30
2022-10-24T12:48:43.412Z,0.30
2022-10-24T12:51:30.031Z,0.20
2022-10-24T12:54:15.835Z,0.30
2022-10-24T12:57:22.848Z,0.27
2022-10-24T12:59:52.387Z,0.40
2022-10-24T13:02:50.189Z,0.33
2022-10-24T13:05:58.253Z,0.30
2022-10-24T13:08:46.271Z,0.30
2022-10-24T13:11:31.676Z,0.37
2022-10-24T13:14:33.092Z,0.30
2022-10-24T13:17:15.056Z,0.40
2022-10-24T13:19:46.691Z,0.33
2022-10-24T13:22:30.406Z,0.37
2022-10-24T13:25:03.939Z,0.50
2022-10-24T13:27:33.433Z,0.50
2022-10-24T13:30:28.041Z,0.20
2022-10-24T13:33:41.442Z,0.30
2022-10-24T13:36:16.650Z,0.50
2022-10-24T13:38:50.400Z,0.40
2022-10-24T13:41:28.461Z,0.63
2022-10-24T13:44:01.610Z,0.90
2022-10-24T13:46:37.856Z,0.33
2022-10-24T13:49:08.050Z,0.20
2022-10-24T13:51:45.491Z,0.43
2022-10-24T13:54:27.824Z,0.40
2022-10-24T13:56:58.502Z,0.40
2022-10-24T13:59:33.908Z,0.43
2022-10-24T14:02:09.321Z,0.43
2022-10-24T14:04:39.747Z,0.50
2022-10-24T14:07:13.999Z,0.43
2022-10-24T14:09:51.545Z,0.70
2022-10-24T14:12:24.804Z,0.30
2022-10-24T14:14:54.191Z,0.40
2022-10-24T14:17:29.627Z,0.43
2022-10-24T14:20:00.408Z,0.43
2022-10-24T14:22:30.792Z,0.80
2022-10-24T14:25:04.069Z,0.40
2022-10-24T14:27:32.481Z,0.50
2022-10-24T14:30:02.545Z,0.60
2022-10-24T14:32:35.059Z,0.60
2022-10-24T14:35:06.381Z,0.40
2022-10-24T14:37:41.281Z,0.47
2022-10-24T14:40:18.314Z,0.77
2022-10-24T14:42:47.630Z,0.80
2022-10-24T14:45:39.317Z,0.60
2022-10-24T14:48:48.040Z,0.70
2022-10-24T14:51:38.574Z,0.90
2022-10-24T14:54:20.722Z,2.13
2022-10-24T14:56:49.761Z,1.17
2022-10-24T14:59:29.606Z,0.80
2022-10-24T15:02:01.165Z,0.83
2022-10-24T15:04:32.727Z,1.13
2022-10-24T15:07:20.977Z,1.00
2022-10-24T15:09:57.788Z,0.80
2022-10-24T15:12:34.427Z,1.00
2022-10-24T15:16:04.871Z,0.67
2022-10-24T15:19:20.204Z,1.00
2022-10-24T15:21:55.213Z,1.00
2022-10-24T15:24:28.191Z,2.00
2022-10-24T15:27:44.182Z,0.97
2022-10-24T15:30:39.646Z,1.73
2022-10-24T15:33:49.920Z,0.77
2022-10-24T15:41:11.219Z,1.30
2022-10-24T15:44:45.300Z,1.10
2022-10-24T15:48:56.301Z,1.40
2022-10-24T15:51:50.504Z,1.10
2022-10-24T15:55:46.388Z,1.53
2022-10-24T15:59:08.024Z,1.80
2022-10-24T16:01:40.531Z,1.53
2022-10-24T16:04:20.255Z,2.03
2022-10-24T16:09:59.255Z,2.40
2022-10-24T16:12:34.106Z,2.13
2022-10-24T16:15:37.765Z,4.40
2022-10-24T16:19:19.035Z,1.90
2022-10-24T16:21:50.441Z,2.67
2022-10-24T16:24:25.851Z,3.67
2022-10-24T16:27:01.640Z,2.40
2022-10-24T16:29:36.257Z,1.90
2022-10-24T16:32:57.163Z,2.70
2022-10-24T16:36:02.291Z,2.57
2022-10-24T16:42:44.039Z,2.10
2022-10-24T16:45:13.526Z,2.70
2022-10-24T16:48:13.357Z,2.07
2022-10-24T16:51:27.789Z,1.80
2022-10-24T16:54:02.258Z,2.13
2022-10-24T16:56:43.740Z,2.10
2022-10-24T16:59:29.217Z,1.60
2022-10-24T17:02:31.550Z,2.83
2022-10-24T17:05:33.109Z,1.97
2022-10-24T17:12:51.169Z,1.93
2022-10-24T17:15:23.930Z,2.27
2022-10-24T17:18:29.103Z,2.27
2022-10-24T17:21:27.973Z,2.33
2022-10-24T17:24:01.012Z,2.00
2022-10-24T17:26:32.975Z,1.93
2022-10-24T17:29:27.045Z,2.20
2022-10-24T17:32:02.274Z,2.03
2022-10-24T17:34:41.379Z,1.70
2022-10-24T17:37:23.796Z,1.73
2022-10-24T17:40:42.460Z,2.30
2022-10-24T17:43:34.662Z,2.30
2022-10-24T17:46:32.480Z,2.47
2022-10-24T17:49:21.598Z,2.30
2022-10-24T17:56:05.077Z,2.33
2022-10-24T18:02:54.950Z,2.37
2022-10-24T18:05:44.604Z,1.90
2022-10-24T18:08:50.983Z,1.40
2022-10-24T18:12:32.817Z,2.13
2022-10-24T18:16:02.434Z,1.43
2022-10-24T18:19:34.721Z,2.10
2022-10-24T18:22:55.210Z,2.03
2022-10-24T18:25:52.484Z,2.47
2022-10-24T18:28:29.269Z,2.10
2022-10-24T18:31:37.442Z,3.57
2022-10-24T18:34:46.133Z,2.47
2022-10-24T18:38:41.749Z,2.10
2022-10-24T18:42:42.409Z,2.30
2022-10-24T19:00:55.381Z,2.43
2022-10-24T19:03:41.306Z,1.73
2022-10-24T19:06:20.859Z,2.60
2022-10-24T19:09:34.264Z,2.60
2022-10-24T19:12:06.991Z,2.10
2022-10-24T19:15:03.397Z,1.60
2022-10-24T19:18:20.772Z,1.40
2022-10-24T19:20:48.999Z,1.80
2022-10-24T19:23:20.434Z,1.70
2022-10-24T19:26:01.104Z,1.57
2022-10-24T19:29:19.659Z,1.60
2022-10-24T19:32:12.550Z,2.03
2022-10-24T19:35:28.644Z,2.03
2022-10-24T19:38:28.356Z,1.60
2022-10-24T19:41:19.463Z,1.47
2022-10-24T19:44:18.913Z,1.40
2022-10-24T19:46:49.092Z,1.13
2022-10-24T19:50:10.785Z,1.73
2022-10-24T19:52:50.868Z,1.50
2022-10-24T19:55:46.501Z,1.90
2022-10-24T20:00:12.661Z,1.20
2022-10-24T20:01:53.962Z,1.57
2022-10-24T20:04:22.210Z,1.70
2022-10-24T20:07:28.658Z,1.17
2022-10-24T20:10:00.452Z,1.40
2022-10-24T20:12:37.027Z,1.40
2022-10-24T20:15:15.761Z,1.43
2022-10-24T20:17:47.278Z,1.57
2022-10-24T20:20:17.842Z,1.03
2022-10-24T20:29:15.124Z,1.90
2022-10-24T20:32:16.398Z,1.57
2022-10-24T20:35:23.330Z,2.03
2022-10-24T20:38:19.947Z,1.00
2022-10-24T20:41:54.057Z,1.20
2022-10-24T20:50:04.906Z,1.30
2022-10-24T20:53:41.649Z,1.40
2022-10-24T21:00:05.535Z,1.90
2022-10-24T21:02:53.752Z,1.37
2022-10-24T21:05:46.500Z,1.37
2022-10-24T21:08:42.580Z,1.20
2022-10-24T21:15:43.265Z,1.33
2022-10-24T21:18:37.740Z,1.53
2022-10-24T21:21:19.517Z,1.13
2022-10-24T21:28:00.418Z,1.00
2022-10-24T21:31:21.234Z,1.20
2022-10-24T21:34:39.028Z,1.40
2022-10-24T21:37:32.550Z,1.47
2022-10-24T21:44:14.511Z,0.80
2022-10-24T21:51:26.999Z,1.00
2022-10-24T21:54:29.947Z,1.53
2022-10-24T21:57:36.758Z,1.43
2022-10-24T22:00:08.573Z,1.30
2022-10-24T22:03:03.542Z,1.03
2022-10-24T22:05:59.465Z,1.17
2022-10-24T22:08:59.419Z,1.50
2022-10-24T22:11:43.629Z,1.17
2022-10-24T22:15:20.704Z,1.17
2022-10-24T22:18:09.541Z,1.10
2022-10-24T22:21:02.429Z,1.53
2022-10-24T22:27:16.148Z,1.33
2022-10-24T22:29:51.759Z,1.13
2022-10-24T22:32:51.645Z,1.33
2022-10-24T22:35:51.051Z,0.93
2022-10-24T22:41:59.475Z,1.30
2022-10-24T22:45:02.258Z,1.30
2022-10-24T22:48:23.172Z,1.13
2022-10-24T22:51:32.134Z,1.37
2022-10-24T22:54:52.806Z,1.60
2022-10-24T22:57:48.947Z,1.07
2022-10-24T23:00:26.943Z,1.17
2022-10-24T23:03:02.610Z,1.20
2022-10-24T23:05:39.623Z,0.80
2022-10-24T23:08:16.984Z,1.33
2022-10-24T23:10:54.069Z,1.40
2022-10-24T23:13:30.436Z,1.23
2022-10-24T23:16:33.165Z,1.27
2022-10-24T23:19:33.581Z,1.10
2022-10-24T23:22:22.788Z,1.50
2022-10-24T23:25:28.363Z,1.43
2022-10-24T23:28:13.125Z,1.00
2022-10-24T23:38:39.010Z,1.47
2022-10-24T23:41:42.869Z,0.90
2022-10-24T23:44:17.016Z,1.07
2022-10-24T23:47:18.776Z,0.70
2022-10-24T23:53:20.826Z,1.20
2022-10-24T23:55:56.934Z,1.17
2022-10-24T23:58:32.184Z,0.90
